createdAt,value
2023-04-07T00:04:53.780Z,81.62
2023-04-07T00:20:36.328Z,81.11
2023-04-07T00:36:18.841Z,81.43
2023-04-07T00:52:01.495Z,81.19
2023-04-07T01:07:44.468Z,81.94
2023-04-07T01:23:26.732Z,82.36
2023-04-07T01:39:09.690Z,83.47
2023-04-07T01:54:52.772Z,84.34
2023-04-07T02:10:35.192Z,85.33
2023-04-07T02:26:17.854Z,84.95
2023-04-07T02:42:00.206Z,86.06
2023-04-07T02:57:42.853Z,88.13
2023-04-07T03:13:25.953Z,87.34
2023-04-07T03:29:08.410Z,87.12
2023-04-07T03:44:50.844Z,88.12
2023-04-07T04:00:33.915Z,87.81
2023-04-07T04:16:16.310Z,88.54
2023-04-07T04:31:59.177Z,87.46
2023-04-07T04:47:41.592Z,86.8
2023-04-07T05:03:24.716Z,86.41
2023-04-07T05:19:07.401Z,85.41
2023-04-07T05:34:50.294Z,84.64
2023-04-07T05:50:32.698Z,83.43
2023-04-07T06:06:15.373Z,82.99
2023-04-07T06:21:57.881Z,88.69
2023-04-07T06:22:45.311Z,86.29
2023-04-07T06:54:10.495Z,79.81
2023-04-07T07:09:53.062Z,78.58
2023-04-07T07:25:35.512Z,75.39
2023-04-07T07:41:17.854Z,74.06
2023-04-07T07:57:00.813Z,69.58
2023-04-07T08:12:43.856Z,63.92
2023-04-07T08:28:26.054Z,58.43
2023-04-07T08:44:09.146Z,52.73
2023-04-07T09:15:34.058Z,50.69
2023-04-07T09:31:16.269Z,51.21
2023-04-07T09:46:58.495Z,51.73
2023-04-07T10:02:41.469Z,52.05
2023-04-07T10:18:24.222Z,50.51
2023-04-07T10:34:07.311Z,51.15
2023-04-07T10:49:49.616Z,53.89
2023-04-07T11:05:32.198Z,59.03
2023-04-07T11:21:15.218Z,66.85
2023-04-07T11:36:57.683Z,77.48
2023-04-07T11:52:40.229Z,83.74
2023-04-07T12:24:04.907Z,90.18
2023-04-07T12:39:47.393Z,93.65
2023-04-07T12:55:29.967Z,94.45
2023-04-07T13:26:56.124Z,93.96
2023-04-07T13:42:38.282Z,94.7
2023-04-07T13:58:21.142Z,96.79
2023-04-07T14:14:03.466Z,100
2023-04-07T14:29:52.749Z,100
2023-04-07T14:45:28.752Z,100
2023-04-07T15:01:11.806Z,100
2023-04-07T15:16:54.471Z,100
2023-04-07T15:32:36.800Z,100
2023-04-07T15:48:19.184Z,100
2023-04-07T16:04:02.131Z,100
2023-04-07T16:19:44.808Z,100
2023-04-07T16:35:27.295Z,100
2023-04-07T16:51:09.608Z,100
2023-04-07T17:06:52.618Z,100
2023-04-07T17:22:35.077Z,100
2023-04-07T17:38:18.153Z,100
2023-04-07T17:54:01.190Z,100
2023-04-07T18:09:43.693Z,100
2023-04-07T18:25:26.621Z,100
2023-04-07T18:41:09.116Z,100
2023-04-07T18:56:51.857Z,100
2023-04-07T19:12:34.679Z,100
2023-04-07T19:43:59.932Z,100
2023-04-07T19:59:42.699Z,100
2023-04-07T20:15:25.427Z,100
2023-04-07T20:31:08.146Z,100
2023-04-07T20:46:50.459Z,100
2023-04-07T21:02:33.453Z,100
2023-04-07T21:18:16.101Z,100
2023-04-07T21:33:58.366Z,100
2023-04-07T22:05:23.151Z,100
2023-04-07T22:21:06.224Z,100
2023-04-07T22:36:48.838Z,100
2023-04-07T23:08:13.640Z,100
2023-04-07T23:23:56.408Z,100
2023-04-07T23:39:38.902Z,100
2023-04-07T23:55:21.969Z,100
